« 趣味的航空路誌改訂情報 2019/11/7 thu | トップページ | 岐阜基地航空祭2019【飛行編2】 岐阜飛行場 2019/11/10 sun »

2019/11/11

岐阜基地航空祭2019【飛行編1】 岐阜飛行場 2019/11/10 sun

予行の画像を見ていると、むしょうに行きたくなって、速攻でお仕事を片付け参戦することに。

METAR RJNG 092300Z 36004KT 9999 FEW030 12/04 Q1016 RMK 1CU030 A3002=

20191110_rjng_100c47

今年の開門は6時半過ぎだったようで、電車も開門もストレス無く入場しました。

20191110_rjng_101k573604

地元機はまだ準備中のうちに、お隣小牧からあがったコビーさん。

20191110_rjng_102t865949

8時半からフライト開始。まずはメイプルさん。

20191110_rjng_103f578357

お爺さん改

20191110_rjng_104f578357

青空にドッカーン

20191110_rjng_105f028801

昨年は「そまたん」だった15もドッカーン

20191110_rjng_106f638502

シリウスさんは、上がって直ぐターンして轟音を振りまきます。

20191110_rjng_107f638502

ABオフ

20191110_rjng_108t865949

86-5945 T-7 ADTW M-M

20191110_rjng_109fx3

オープニングの3機編隊

20191110_rjng_110f638502

F-2さんブレイク

20191110_rjng_111f578357

20191110_rjng_112f638502

63-8502 F-2A ADTW M-SKYER3

20191110_rjng_113f578357

2機で進入して

20191110_rjng_114f028801

02-8801 F-15J ADTW M-SKYER2

20191110_rjng_115f028801

グルグル廻って

20191110_rjng_116f578357

最後はF-4さん

20191110_rjng_117f578357

57-8357 F-4EJk ADTW M-SKYER1

20191110_rjng_118t865949

T-7さん戻って、着陸

20191110_rjng_119k573604

KCさんとランデブー

METAR RJNG 100000Z 25003KT 210V280 9999 FEW045 15/02 Q1015 RMK
1SC045 A3000

20191110_rjng_120f578357

ブレイクして離脱

20191110_rjng_121k573604

空中給油デモ終了

20191110_rjng_122k573604

三井山をまわって、KCさんの単独展示飛行

20191110_rjng_123k573604

57-3604 KC-767J 404SQ C61

20191110_rjng_124k573604

20191110_rjng_125k573604

低いローアプローチ

20191110_rjng_126k573604

メカニカルなギアアップもクール。お疲れ様です。この後ブルー支援だった模様。

20191110_rjng_127v

救難隊の救難展示の予定でしたが、急遽中止に。

METAR RJNG 100100Z 29004KT 250V330 9999 FEW045 16/01 Q1015 RMK
1SC045 A2999

20191110_rjng_128bi

10時過ぎ、前日の小牧航空祭に参加したブルーインパルスが帰投です。

20191110_rjng_129bi

リーダー機がスモークを引いています。

20191110_rjng_130bi

7機確認。

20191110_rjng_131bi

一斉にスモークオン

20191110_rjng_132bi

素晴らしい・・

20191110_rjng_133bi

岐阜基地上空を航過ではありませんでしたが、良かったです。

20191110_rjng_134bi

青空に溶け込んで行きました。

20191110_rjng_135f578357

飛行開発実験団の本領発揮、飛行試験展示

20191110_rjng_136f128078

F-4がチェイスしてF-15が離陸

20191110_rjng_137f128078

今年はまだT-4が飛べないようで、F-4さんが最後のご奉公。

20191110_rjng_138f038105

続いてF-2さん

20191110_rjng_139f128078

試験機の15がマニューバーを紹介します。

20191110_rjng_140f578357

F-4さんはそれをチェイス

20191110_rjng_141f038105

03-8105 F-2B ADTW M-GLAY3

20191110_rjng_142f038105

会場では放送で試験を解説してます。

20191110_rjng_143f578357

F-4とF-15がGO GATE

20191110_rjng_144f578357

57-8357 F-4EJk ADTW M-GLAY1

20191110_rjng_145f578357

ブレイク

20191110_rjng_146f128078

これからエルロン・ロールとダッチ・ロールの違い展示

20191110_rjng_147f128078

写真だけでは、ドッチがドッチだったか・・ 動画で見たいですよね。

20191110_rjng_148f128078

エルロンロールとおも

20191110_rjng_149f128078

ブレイクして

20191110_rjng_150f038105

F-2さんのエルロン・ロール F-2は操舵がコンピュータ制御で、滑らか。

METAR RJNG 100200Z 23003KT 180V300 9999 FEW045 17/01 Q1015 RMK
1SC045 A2997

20191110_rjng_151f038105

F-2さんのダッチ・ロールはおもしろい

20191110_rjng_152f038105

首を右、左とウニウニしてます。

20191110_rjng_153f038105

ブレイクして次の展示へ

20191110_rjng_154f578357

次は、AGG

20191110_rjng_155f578357

F-4さんお得意

20191110_rjng_156f038105

F-15、F-2さん編隊で進入して

20191110_rjng_157f038105

スプレッド

20191110_rjng_158f038105

F-2さんクリア・ドライ

20191110_rjng_159f038105

20191110_rjng_160f128078

15さんも負けずにAGG

20191110_rjng_161f128078

12-8078 F-15DJ ADTW M-GLAY3

20191110_rjng_162f038105

今度はF-2さんをF-15さんがチェイス

20191110_rjng_163f038105

ローアプローチへ

20191110_rjng_164f038105

20191110_rjng_165f038105

ギアアップして・・

20191110_rjng_166f128078

上空を15さんが通過 解説は、録音したかったですね。

20191110_rjng_167f128078

#078

20191110_rjng_168f038105

#105

20191110_rjng_169f038105

#357 お疲れさまでした。

20191110_rjng_170ja111f

午前ラストは、室屋さんのエアロ・バティック

20191110_rjng_171ja111f

エア・レースが終了してしまったので、今後はどうなるのかと・・

20191110_rjng_172ja111f

肩書きもエアロバティック・パイロットになってましたね。

20191110_rjng_173ja111f

青空キャンパスに綺麗な白いスモーク

20191110_rjng_174ja111f

はい、レクサス

20191110_rjng_175ja111f

ニコちゃんもにこにこ

20191110_rjng_176ja111f

グワン・グワン・グワン と、いわせるヤツ

20191110_rjng_177ja111f

15回ぐらい回るのだったかな

20191110_rjng_178ja111f

南地区から北地区へ歩きながら撮ってます。

20191110_rjng_179ja111f

JA111F EA-300SC

20191110_rjng_180ja111f

これからもフライトを期待しています。

午前の部は、これにてお終い。

つづく

 

|

« 趣味的航空路誌改訂情報 2019/11/7 thu | トップページ | 岐阜基地航空祭2019【飛行編2】 岐阜飛行場 2019/11/10 sun »

BI」カテゴリの記事

岐阜飛行場」カテゴリの記事

チーム室屋」カテゴリの記事

コメント

コメントを書く



(ウェブ上には掲載しません)


コメントは記事投稿者が公開するまで表示されません。



« 趣味的航空路誌改訂情報 2019/11/7 thu | トップページ | 岐阜基地航空祭2019【飛行編2】 岐阜飛行場 2019/11/10 sun »